createdAt,value
2017-06-02T00:01:09.611Z,42.30
2017-06-02T00:03:37.044Z,42.90
2017-06-02T00:06:04.491Z,42.60
2017-06-02T00:08:31.899Z,42.50
2017-06-02T00:10:59.364Z,42.70
2017-06-02T00:13:26.792Z,42.70
2017-06-02T00:15:54.222Z,42.90
2017-06-02T00:18:21.660Z,42.80
2017-06-02T00:20:49.083Z,42.60
2017-06-02T00:23:16.528Z,42.60
2017-06-02T00:25:43.971Z,42.60
2017-06-02T00:28:11.482Z,42.60
2017-06-02T00:30:38.907Z,42.80
2017-06-02T00:33:06.327Z,43.70
2017-06-02T00:35:33.788Z,42.80
2017-06-02T00:38:01.219Z,43.00
2017-06-02T00:40:28.653Z,43.10
2017-06-02T00:42:56.084Z,43.00
2017-06-02T00:45:23.507Z,43.10
2017-06-02T00:47:50.947Z,43.60
2017-06-02T00:50:18.465Z,43.60
2017-06-02T00:52:45.875Z,43.40
2017-06-02T00:55:13.307Z,43.40
2017-06-02T00:57:40.741Z,43.40
2017-06-02T01:00:08.183Z,43.10
2017-06-02T01:02:35.612Z,43.10
2017-06-02T01:05:03.034Z,43.40
2017-06-02T01:07:30.470Z,43.30
2017-06-02T01:09:57.890Z,43.70
2017-06-02T01:12:25.350Z,43.80
2017-06-02T01:14:52.780Z,43.70
2017-06-02T01:17:20.215Z,43.90
2017-06-02T01:19:47.645Z,43.90
2017-06-02T01:22:15.080Z,44.00
2017-06-02T01:24:42.543Z,43.50
2017-06-02T01:27:09.976Z,43.60
2017-06-02T01:29:37.399Z,43.80
2017-06-02T01:32:04.844Z,43.70
2017-06-02T01:34:32.271Z,43.70
2017-06-02T01:36:59.711Z,44.70
2017-06-02T01:39:27.151Z,44.90
2017-06-02T01:41:54.647Z,44.30
2017-06-02T01:44:22.080Z,44.40
2017-06-02T01:46:49.507Z,44.50
2017-06-02T01:49:16.963Z,44.40
2017-06-02T01:51:44.401Z,44.30
2017-06-02T01:54:11.843Z,44.30
2017-06-02T01:56:39.272Z,44.50
2017-06-02T01:59:06.704Z,44.70
2017-06-02T02:01:34.143Z,44.60
2017-06-02T02:04:01.571Z,45.00
2017-06-02T02:06:28.997Z,44.80
2017-06-02T02:08:56.428Z,45.00
2017-06-02T02:11:23.963Z,45.40
2017-06-02T02:13:51.383Z,46.40
2017-06-02T02:16:18.811Z,47.30
2017-06-02T02:18:46.243Z,48.20
2017-06-02T02:21:13.692Z,48.70
2017-06-02T02:23:41.120Z,49.40
2017-06-02T02:26:08.579Z,49.80
2017-06-02T02:28:36.012Z,50.20
2017-06-02T02:31:03.442Z,51.10
2017-06-02T02:33:30.967Z,50.70
2017-06-02T02:35:58.391Z,51.10
2017-06-02T02:38:25.835Z,51.50
2017-06-02T02:40:53.254Z,51.70
2017-06-02T02:43:20.689Z,51.90
2017-06-02T02:45:48.124Z,52.20
2017-06-02T02:48:15.589Z,52.50
2017-06-02T02:50:42.992Z,52.70
2017-06-02T02:53:10.423Z,52.70
2017-06-02T02:55:37.847Z,52.90
2017-06-02T02:58:05.283Z,53.00
2017-06-02T03:00:32.711Z,53.10
2017-06-02T03:03:00.155Z,53.20
2017-06-02T03:05:27.585Z,53.30
2017-06-02T03:07:55.003Z,53.50
2017-06-02T03:10:22.435Z,53.70
2017-06-02T03:12:49.859Z,53.90
2017-06-02T03:15:17.303Z,53.80
2017-06-02T03:17:44.738Z,53.80
2017-06-02T03:20:12.163Z,53.40
2017-06-02T03:22:39.595Z,53.70
2017-06-02T03:25:07.022Z,53.50
2017-06-02T03:27:34.467Z,53.50
2017-06-02T03:30:01.896Z,53.80
2017-06-02T03:32:29.328Z,54.30
2017-06-02T03:34:56.766Z,54.50
2017-06-02T03:37:24.191Z,54.40
2017-06-02T03:39:51.627Z,54.40
2017-06-02T03:42:19.059Z,54.60
2017-06-02T03:44:46.483Z,54.50
2017-06-02T03:47:13.932Z,54.70
2017-06-02T03:49:41.351Z,54.90
2017-06-02T03:52:08.811Z,54.80
2017-06-02T03:54:36.240Z,54.40
2017-06-02T03:57:03.663Z,54.10
2017-06-02T03:59:31.108Z,54.10
2017-06-02T04:01:58.536Z,53.90
2017-06-02T04:04:25.984Z,53.90
2017-06-02T04:06:53.423Z,54.00
2017-06-02T04:09:20.851Z,53.60
2017-06-02T04:11:48.287Z,53.40
2017-06-02T04:14:15.716Z,53.10
2017-06-02T04:16:43.157Z,53.00
2017-06-02T04:19:10.596Z,52.80
2017-06-02T04:21:38.027Z,52.60
2017-06-02T04:24:05.483Z,52.40
2017-06-02T04:26:32.911Z,51.60
2017-06-02T04:29:00.355Z,50.90
2017-06-02T04:31:27.871Z,50.40
2017-06-02T04:33:55.303Z,49.80
2017-06-02T04:36:22.736Z,49.40
2017-06-02T04:38:50.162Z,49.50
2017-06-02T04:41:17.592Z,48.80
2017-06-02T04:43:45.036Z,48.80
2017-06-02T04:46:12.470Z,48.90
2017-06-02T04:48:39.900Z,48.80
2017-06-02T04:51:07.359Z,48.60
2017-06-02T04:53:34.783Z,48.50
2017-06-02T04:56:02.221Z,48.40
2017-06-02T04:58:29.699Z,47.70
2017-06-02T05:00:57.136Z,47.50
2017-06-02T05:03:24.569Z,48.00
2017-06-02T05:05:52.003Z,47.00
2017-06-02T05:08:19.433Z,46.90
2017-06-02T05:10:46.883Z,46.70
2017-06-02T05:13:14.306Z,45.70
2017-06-02T05:15:41.743Z,45.90
2017-06-02T05:18:09.244Z,45.60
2017-06-02T05:20:36.664Z,45.50
2017-06-02T05:23:04.107Z,44.30
2017-06-02T05:25:31.535Z,43.90
2017-06-02T05:27:58.975Z,43.00
2017-06-02T05:30:26.411Z,41.70
2017-06-02T05:32:53.871Z,41.80
2017-06-02T05:35:21.319Z,42.50
2017-06-02T05:37:48.755Z,42.30
2017-06-02T05:40:16.210Z,41.50
2017-06-02T05:42:43.647Z,40.70
2017-06-02T05:45:11.084Z,40.20
2017-06-02T05:47:38.543Z,39.50
2017-06-02T05:50:07.063Z,38.20
2017-06-02T05:52:34.487Z,37.60
2017-06-02T05:55:01.923Z,36.20
2017-06-02T05:57:29.358Z,35.00
2017-06-02T05:59:56.795Z,34.30
2017-06-02T06:02:24.228Z,34.10
2017-06-02T06:04:51.756Z,33.30
2017-06-02T06:07:19.200Z,32.10
2017-06-02T06:09:46.637Z,31.70
2017-06-02T06:12:14.085Z,31.80
2017-06-02T06:14:41.511Z,30.60
2017-06-02T06:17:08.935Z,31.00
2017-06-02T06:19:36.380Z,31.00
2017-06-02T06:22:03.817Z,30.80
2017-06-02T06:24:31.273Z,30.60
2017-06-02T06:26:58.699Z,30.00
2017-06-02T06:29:26.133Z,29.70
2017-06-02T06:31:53.567Z,29.80
2017-06-02T06:34:20.997Z,29.50
2017-06-02T06:36:48.449Z,29.70
2017-06-02T06:39:15.867Z,29.50
2017-06-02T06:41:43.314Z,29.10
2017-06-02T06:44:10.743Z,29.40
2017-06-02T06:46:38.177Z,29.50
2017-06-02T06:49:05.620Z,28.90
2017-06-02T06:51:33.383Z,28.30
2017-06-02T06:54:00.837Z,28.40
2017-06-02T06:56:28.268Z,27.90
2017-06-02T06:58:55.699Z,28.00
2017-06-02T07:01:23.140Z,27.90
2017-06-02T07:03:50.583Z,27.70
2017-06-02T07:06:18.015Z,28.40
2017-06-02T07:08:45.451Z,28.20
2017-06-02T07:11:12.883Z,29.20
2017-06-02T07:13:40.322Z,29.60
2017-06-02T07:16:07.778Z,30.00
2017-06-02T07:18:35.205Z,29.90
2017-06-02T07:21:02.641Z,29.20
2017-06-02T07:23:30.063Z,28.90
2017-06-02T07:25:57.507Z,28.10
2017-06-02T07:28:24.982Z,28.20
2017-06-02T07:30:52.403Z,27.90
2017-06-02T07:33:19.835Z,28.20
2017-06-02T07:35:47.300Z,27.60
2017-06-02T07:38:14.761Z,27.10
2017-06-02T07:40:42.187Z,27.60
2017-06-02T07:43:09.627Z,27.40
2017-06-02T07:45:37.064Z,27.30
2017-06-02T07:48:04.499Z,26.50
2017-06-02T07:50:31.954Z,26.30
2017-06-02T07:52:59.371Z,26.10
2017-06-02T07:55:26.804Z,26.60
2017-06-02T07:57:54.273Z,26.90
2017-06-02T08:00:21.700Z,26.10
2017-06-02T08:02:49.144Z,26.20
2017-06-02T08:05:16.577Z,26.50
2017-06-02T08:07:44.007Z,25.60
2017-06-02T08:10:11.439Z,25.60
2017-06-02T08:12:38.863Z,25.30
2017-06-02T08:15:06.303Z,25.90
2017-06-02T08:17:33.730Z,25.90
2017-06-02T08:20:01.168Z,26.70
2017-06-02T08:22:28.648Z,26.40
2017-06-02T08:24:56.080Z,26.30
2017-06-02T08:27:23.584Z,26.60
2017-06-02T08:29:51.000Z,27.20
2017-06-02T08:32:18.430Z,27.00
2017-06-02T08:34:45.875Z,27.10
2017-06-02T08:37:13.307Z,27.30
2017-06-02T08:39:40.749Z,27.30
2017-06-02T08:42:08.191Z,27.30
2017-06-02T08:44:35.631Z,26.60
2017-06-02T08:47:03.063Z,26.40
2017-06-02T08:49:30.495Z,26.10
2017-06-02T08:51:57.931Z,26.10
2017-06-02T08:54:25.359Z,25.10
2017-06-02T08:56:52.791Z,25.30
2017-06-02T08:59:20.229Z,24.80
2017-06-02T09:01:47.654Z,24.30
2017-06-02T09:04:15.087Z,23.00
2017-06-02T09:06:42.521Z,23.20
2017-06-02T09:09:09.952Z,22.60
2017-06-02T09:11:37.389Z,22.40
2017-06-02T09:14:04.885Z,22.40
2017-06-02T09:16:32.356Z,22.50
2017-06-02T09:18:59.795Z,23.50
2017-06-02T09:21:27.240Z,22.70
2017-06-02T09:23:55.547Z,23.80
2017-06-02T09:26:22.987Z,23.00
2017-06-02T09:28:50.419Z,22.90
2017-06-02T09:31:17.895Z,23.50
2017-06-02T09:33:45.370Z,25.10
2017-06-02T09:36:12.788Z,24.60
2017-06-02T09:38:40.227Z,25.30
2017-06-02T09:41:07.711Z,25.40
2017-06-02T09:43:35.220Z,24.30
2017-06-02T09:46:02.639Z,23.60
2017-06-02T09:48:30.073Z,23.70
2017-06-02T09:50:57.534Z,23.00
2017-06-02T09:53:24.958Z,22.30
2017-06-02T09:55:52.438Z,22.00
2017-06-02T09:58:19.885Z,21.50
2017-06-02T10:00:47.315Z,22.40
2017-06-02T10:03:14.756Z,21.20
2017-06-02T10:05:42.195Z,21.50
2017-06-02T10:08:09.623Z,20.80
2017-06-02T10:10:37.063Z,21.30
2017-06-02T10:13:04.513Z,21.00
2017-06-02T10:15:32.767Z,21.50
2017-06-02T10:18:00.199Z,20.90
2017-06-02T10:20:27.634Z,21.10
2017-06-02T10:22:55.106Z,21.60
2017-06-02T10:25:22.547Z,21.40
2017-06-02T10:27:49.987Z,22.10
2017-06-02T10:30:17.424Z,23.20
2017-06-02T10:32:44.843Z,23.60
2017-06-02T10:35:12.275Z,24.70
2017-06-02T10:37:39.711Z,25.60
2017-06-02T10:40:07.159Z,26.00
2017-06-02T10:42:34.585Z,27.00
2017-06-02T10:45:02.078Z,26.60
2017-06-02T10:47:29.508Z,26.30
2017-06-02T10:49:56.935Z,25.40
2017-06-02T10:52:24.378Z,25.90
2017-06-02T10:54:52.485Z,26.40
2017-06-02T10:57:19.895Z,26.90
2017-06-02T10:59:47.331Z,27.40
2017-06-02T11:02:14.787Z,27.80
2017-06-02T11:04:42.220Z,27.60
2017-06-02T11:07:09.720Z,28.00
2017-06-02T11:09:37.150Z,28.80
2017-06-02T11:12:04.584Z,28.70
2017-06-02T11:14:32.025Z,28.00
2017-06-02T11:16:59.455Z,27.80
2017-06-02T11:19:26.883Z,27.80
2017-06-02T11:21:54.319Z,27.60
2017-06-02T11:24:21.747Z,27.30
2017-06-02T11:26:49.172Z,27.20
2017-06-02T11:29:16.600Z,26.90
2017-06-02T11:31:44.035Z,27.20
2017-06-02T11:34:11.463Z,27.00
2017-06-02T11:36:38.896Z,27.20
2017-06-02T11:39:06.339Z,27.30
2017-06-02T11:41:33.770Z,27.70
2017-06-02T11:44:01.195Z,27.70
2017-06-02T11:46:28.635Z,27.80
2017-06-02T11:48:56.068Z,27.80
2017-06-02T11:51:23.499Z,27.30
2017-06-02T11:53:50.954Z,27.60
2017-06-02T11:56:18.380Z,27.50
2017-06-02T11:58:45.819Z,27.60
2017-06-02T12:01:13.639Z,27.30
2017-06-02T12:03:41.072Z,27.20
2017-06-02T12:06:09.690Z,27.20
2017-06-02T12:08:37.103Z,27.60
2017-06-02T12:11:04.569Z,28.00
2017-06-02T12:13:32.006Z,27.60
2017-06-02T12:15:59.435Z,27.30
2017-06-02T12:18:26.871Z,27.90
2017-06-02T12:20:54.308Z,28.70
2017-06-02T12:23:21.764Z,28.10
2017-06-02T12:25:49.178Z,27.40
2017-06-02T12:28:16.663Z,28.90
2017-06-02T12:30:44.092Z,31.00
2017-06-02T12:33:11.526Z,31.20
2017-06-02T12:35:38.983Z,31.80
2017-06-02T12:38:06.424Z,31.70
2017-06-02T12:40:33.872Z,32.30
2017-06-02T12:43:01.317Z,32.70
2017-06-02T12:45:28.757Z,32.70
2017-06-02T12:47:56.215Z,32.70
2017-06-02T12:50:23.655Z,32.50
2017-06-02T12:52:51.080Z,32.80
2017-06-02T12:55:18.516Z,32.60
2017-06-02T12:57:45.946Z,32.20
2017-06-02T13:00:13.395Z,32.40
2017-06-02T13:02:40.862Z,32.60
2017-06-02T13:05:08.283Z,32.00
2017-06-02T13:07:35.723Z,31.80
2017-06-02T13:10:03.179Z,32.20
2017-06-02T13:12:30.603Z,32.30
2017-06-02T13:14:58.038Z,32.30
2017-06-02T13:17:25.459Z,32.60
2017-06-02T13:19:52.896Z,32.40
2017-06-02T13:22:20.323Z,32.40
2017-06-02T13:24:47.767Z,32.50
2017-06-02T13:27:15.204Z,32.90
2017-06-02T13:29:42.627Z,34.00
2017-06-02T13:32:10.075Z,33.20
2017-06-02T13:34:37.514Z,34.10
2017-06-02T13:37:05.072Z,32.70
2017-06-02T13:39:32.527Z,33.30
2017-06-02T13:41:59.965Z,33.50
2017-06-02T13:44:27.929Z,33.30
2017-06-02T13:46:55.343Z,33.30
2017-06-02T13:49:22.788Z,34.60
2017-06-02T13:51:50.224Z,33.50
2017-06-02T13:54:17.651Z,34.00
2017-06-02T13:56:45.095Z,33.30
2017-06-02T13:59:12.527Z,32.80
2017-06-02T14:01:39.963Z,33.50
2017-06-02T14:04:07.502Z,32.50
2017-06-02T14:06:34.935Z,32.20
2017-06-02T14:09:02.363Z,32.10
2017-06-02T14:11:29.791Z,32.50
2017-06-02T14:13:57.231Z,31.20
2017-06-02T14:16:24.668Z,31.30
2017-06-02T14:18:52.087Z,30.80
2017-06-02T14:21:19.551Z,31.20
2017-06-02T14:23:46.992Z,31.70
2017-06-02T14:26:14.454Z,32.20
2017-06-02T14:28:41.883Z,32.80
2017-06-02T14:31:09.311Z,33.30
2017-06-02T14:33:36.742Z,33.60
2017-06-02T14:36:04.171Z,33.40
2017-06-02T14:38:32.284Z,33.30
2017-06-02T14:40:59.752Z,33.80
2017-06-02T14:43:27.159Z,33.70
2017-06-02T14:45:54.600Z,33.60
2017-06-02T14:48:22.028Z,33.50
2017-06-02T14:50:49.463Z,33.80
2017-06-02T14:53:16.906Z,33.60
2017-06-02T14:55:44.343Z,33.90
2017-06-02T14:58:11.926Z,33.50
2017-06-02T15:00:39.343Z,34.50
2017-06-02T15:03:06.783Z,34.70
2017-06-02T15:05:34.212Z,35.00
2017-06-02T15:08:01.643Z,35.00
2017-06-02T15:10:29.118Z,35.60
2017-06-02T15:12:56.543Z,35.40
2017-06-02T15:15:23.978Z,35.60
2017-06-02T15:17:51.411Z,36.00
2017-06-02T15:20:18.842Z,36.70
2017-06-02T15:22:46.295Z,36.90
2017-06-02T15:25:13.739Z,37.10
2017-06-02T15:27:41.192Z,36.80
2017-06-02T15:30:08.620Z,36.90
2017-06-02T15:32:36.085Z,35.40
2017-06-02T15:35:03.519Z,35.40
2017-06-02T15:37:30.963Z,35.20
2017-06-02T15:39:58.408Z,35.50
2017-06-02T15:42:25.843Z,35.80
2017-06-02T15:44:53.281Z,35.80
2017-06-02T15:47:20.765Z,35.40
2017-06-02T15:49:48.187Z,34.40
2017-06-02T15:52:15.627Z,35.30
2017-06-02T15:54:43.071Z,36.10
2017-06-02T15:57:10.504Z,37.20
2017-06-02T15:59:38.015Z,37.10
2017-06-02T16:02:05.432Z,37.10
2017-06-02T16:04:32.871Z,36.80
2017-06-02T16:07:00.309Z,37.00
2017-06-02T16:09:27.757Z,37.00
2017-06-02T16:11:55.179Z,37.20
2017-06-02T16:14:22.652Z,37.20
2017-06-02T16:16:50.079Z,37.20
2017-06-02T16:19:17.519Z,37.50
2017-06-02T16:21:44.954Z,37.50
2017-06-02T16:24:12.383Z,37.60
2017-06-02T16:26:39.811Z,38.30
2017-06-02T16:29:07.278Z,39.00
2017-06-02T16:31:34.699Z,39.40
2017-06-02T16:34:02.168Z,38.70
2017-06-02T16:36:29.603Z,38.20
2017-06-02T16:38:57.038Z,38.30
2017-06-02T16:41:24.467Z,37.50
2017-06-02T16:43:51.899Z,37.20
2017-06-02T16:46:19.339Z,38.10
2017-06-02T16:48:46.789Z,37.40
2017-06-02T16:51:14.218Z,37.40
2017-06-02T16:53:41.651Z,37.30
2017-06-02T16:56:09.093Z,37.70
2017-06-02T16:58:36.555Z,38.00
2017-06-02T17:01:03.983Z,39.00
2017-06-02T17:03:31.412Z,38.80
2017-06-02T17:05:58.852Z,39.20
2017-06-02T17:08:26.284Z,39.60
2017-06-02T17:10:53.730Z,40.00
2017-06-02T17:13:21.155Z,40.30
2017-06-02T17:15:48.579Z,40.10
2017-06-02T17:18:16.027Z,39.90
2017-06-02T17:20:43.487Z,39.90
2017-06-02T17:23:10.927Z,39.90
2017-06-02T17:25:38.364Z,40.00
2017-06-02T17:28:05.788Z,40.30
2017-06-02T17:30:33.223Z,39.70
2017-06-02T17:33:00.660Z,39.40
2017-06-02T17:35:28.110Z,39.60
2017-06-02T17:37:55.538Z,39.80
2017-06-02T17:40:22.976Z,40.70
2017-06-02T17:42:50.411Z,41.00
2017-06-02T17:45:17.847Z,41.40
2017-06-02T17:47:45.304Z,42.00
2017-06-02T17:50:12.732Z,41.60
2017-06-02T17:52:40.165Z,40.90
2017-06-02T17:55:07.599Z,40.20
2017-06-02T17:57:35.081Z,39.40
2017-06-02T18:00:02.531Z,38.80
2017-06-02T18:02:29.956Z,38.70
2017-06-02T18:04:57.378Z,38.70
2017-06-02T18:07:24.821Z,39.10
2017-06-02T18:09:52.243Z,38.80
2017-06-02T18:12:19.730Z,38.10
2017-06-02T18:14:47.155Z,38.20
2017-06-02T18:17:14.579Z,38.40
2017-06-02T18:19:42.018Z,38.50
2017-06-02T18:22:09.439Z,38.70
2017-06-02T18:24:36.879Z,38.80
2017-06-02T18:27:04.319Z,39.30
2017-06-02T18:29:31.746Z,39.80
2017-06-02T18:31:59.179Z,40.10
2017-06-02T18:34:26.618Z,40.40
2017-06-02T18:36:54.052Z,40.90
2017-06-02T18:39:21.496Z,41.10
2017-06-02T18:41:48.933Z,41.10
2017-06-02T18:44:16.375Z,41.60
2017-06-02T18:46:43.812Z,41.90
2017-06-02T18:49:11.239Z,42.30
2017-06-02T18:51:38.667Z,42.30
2017-06-02T18:54:06.107Z,42.20
2017-06-02T18:56:33.536Z,42.30
2017-06-02T18:59:00.967Z,42.30
2017-06-02T19:01:28.399Z,42.20
2017-06-02T19:03:55.827Z,42.20
2017-06-02T19:06:23.263Z,42.40
2017-06-02T19:08:50.695Z,43.00
2017-06-02T19:11:18.123Z,42.40
2017-06-02T19:13:45.560Z,42.80
2017-06-02T19:16:12.993Z,42.80
2017-06-02T19:18:40.447Z,43.20
2017-06-02T19:21:07.884Z,43.30
2017-06-02T19:23:35.324Z,43.60
2017-06-02T19:26:02.760Z,44.00
2017-06-02T19:28:30.186Z,44.30
2017-06-02T19:30:57.644Z,44.60
2017-06-02T19:33:25.046Z,45.00
2017-06-02T19:35:52.479Z,45.50
2017-06-02T19:38:19.921Z,45.60
2017-06-02T19:40:47.347Z,45.90
2017-06-02T19:43:14.796Z,46.20
2017-06-02T19:45:42.235Z,46.20
2017-06-02T19:48:09.659Z,46.60
2017-06-02T19:50:37.140Z,46.80
2017-06-02T19:53:04.642Z,47.10
2017-06-02T19:55:32.070Z,47.30
2017-06-02T19:57:59.500Z,47.50
2017-06-02T20:00:26.932Z,47.90
2017-06-02T20:02:54.372Z,48.10
2017-06-02T20:05:21.805Z,48.10
2017-06-02T20:07:49.296Z,48.50
2017-06-02T20:10:16.714Z,48.60
2017-06-02T20:12:44.146Z,48.80
2017-06-02T20:15:11.588Z,49.00
2017-06-02T20:17:39.014Z,49.30
2017-06-02T20:20:06.513Z,49.50
2017-06-02T20:22:33.936Z,49.80
2017-06-02T20:25:01.351Z,49.90
2017-06-02T20:27:28.786Z,50.20
2017-06-02T20:29:56.215Z,50.10
2017-06-02T20:32:23.662Z,50.30
2017-06-02T20:34:51.113Z,50.80
2017-06-02T20:37:18.576Z,51.20
2017-06-02T20:39:46.023Z,50.70
2017-06-02T20:42:13.783Z,50.80
2017-06-02T20:44:41.222Z,51.00
2017-06-02T20:47:09.112Z,51.10
2017-06-02T20:49:36.531Z,51.30
2017-06-02T20:52:04.031Z,51.40
2017-06-02T20:54:31.483Z,51.60
2017-06-02T20:56:58.928Z,51.60
2017-06-02T20:59:26.467Z,51.70
2017-06-02T21:01:53.897Z,51.70
2017-06-02T21:04:21.523Z,51.70
2017-06-02T21:06:48.951Z,51.80
2017-06-02T21:09:16.404Z,52.00
2017-06-02T21:11:43.831Z,52.40
2017-06-02T21:14:11.371Z,52.20
2017-06-02T21:16:38.791Z,52.10
2017-06-02T21:19:06.276Z,52.10
2017-06-02T21:22:09.033Z,52.10
2017-06-02T21:24:38.456Z,52.10
2017-06-02T21:27:05.897Z,52.20
2017-06-02T21:29:33.331Z,52.50
2017-06-02T21:32:00.785Z,52.80
2017-06-02T21:34:28.211Z,53.00
2017-06-02T21:36:55.644Z,53.20
2017-06-02T21:39:23.096Z,53.20
2017-06-02T21:41:50.543Z,53.20
2017-06-02T21:44:17.992Z,53.40
2017-06-02T21:46:45.432Z,53.40
2017-06-02T21:49:12.868Z,53.50
2017-06-02T21:51:40.415Z,53.60
2017-06-02T21:54:07.851Z,53.90
2017-06-02T21:56:35.308Z,54.20
2017-06-02T21:59:02.743Z,54.40
2017-06-02T22:01:30.176Z,54.40
2017-06-02T22:03:57.792Z,54.70
2017-06-02T22:06:25.384Z,55.00
2017-06-02T22:08:52.923Z,55.10
2017-06-02T22:11:20.376Z,55.20
2017-06-02T22:13:47.812Z,55.40
2017-06-02T22:16:15.247Z,55.50
2017-06-02T22:18:43.080Z,55.70
2017-06-02T22:21:10.512Z,55.80
2017-06-02T22:23:37.943Z,55.70
2017-06-02T22:26:05.393Z,55.60
2017-06-02T22:28:32.836Z,55.60
2017-06-02T22:31:00.277Z,55.60
2017-06-02T22:33:27.720Z,55.50
2017-06-02T22:35:55.147Z,55.70
2017-06-02T22:38:22.583Z,55.90
2017-06-02T22:40:50.060Z,56.20
2017-06-02T22:43:17.484Z,56.50
2017-06-02T22:45:45.691Z,57.40
2017-06-02T22:48:13.127Z,56.70
2017-06-02T22:50:40.577Z,56.70
2017-06-02T22:53:08.035Z,56.80
2017-06-02T22:55:35.468Z,57.00
2017-06-02T22:58:02.922Z,57.20
2017-06-02T23:00:30.359Z,57.00
2017-06-02T23:02:57.788Z,57.00
2017-06-02T23:05:25.233Z,57.30
2017-06-02T23:07:52.667Z,57.40
2017-06-02T23:10:20.116Z,57.60
2017-06-02T23:12:47.553Z,57.80
2017-06-02T23:15:14.989Z,58.10
2017-06-02T23:17:42.429Z,58.00
2017-06-02T23:20:09.861Z,58.00
2017-06-02T23:22:37.294Z,58.00
2017-06-02T23:25:05.502Z,58.30
2017-06-02T23:27:33.049Z,58.30
2017-06-02T23:30:00.481Z,58.30
2017-06-02T23:32:27.920Z,58.30
2017-06-02T23:34:55.353Z,58.20
2017-06-02T23:37:22.789Z,58.50
2017-06-02T23:39:50.236Z,58.40
2017-06-02T23:42:17.679Z,58.50
2017-06-02T23:44:45.180Z,58.70
2017-06-02T23:47:12.660Z,58.80
2017-06-02T23:49:40.404Z,58.90
2017-06-02T23:52:07.839Z,59.00
2017-06-02T23:54:35.289Z,59.50
2017-06-02T23:57:02.725Z,59.90
2017-06-02T23:59:30.157Z,60.20
